ADDS METAR Data INFO
IDs: Format: Raw Decoded Include TAF

Data at: 0918 UTC 17 Oct 2017

PAFE 170856Z AUTO 06005KT 10SM CLR 01/01 A2962 RMK AO2 SLP044 T00060006 400780006 53005 FZRANO
PAFE 170756Z AUTO 06005KT 10SM CLR 02/01 A2961 RMK AO2 SLP040 T00170011 FZRANO
PAFE 170656Z AUTO 08006KT 10SM CLR 02/02 A2961 RMK AO2 SLP038 T00220022 FZRANO
PAFE 170456Z AUTO 00000KT 10SM CLR 04/04 A2960 RMK AO2 SLP037 T00440039
PAFE 170356Z AUTO 06005KT 10SM FEW030 BKN050 04/03 A2960 RMK AO2 RAE41 SLP036 P0000 T00390033
PAFE 170256Z AUTO 11003KT 10SM -RA OVC038 06/04 A2959 RMK AO2 RAB03E29B50 SLP033 P0001 60001 T00560044 50003
PAFE 170156Z AUTO 00000KT 10SM BKN034 BKN047 05/05 A2960 RMK AO2 RAB17E42 SLP034 P0000 T00500050
PAFE 170130Z AUTO 08003KT 10SM -RA FEW015 OVC045 06/05 A2960 RMK AO2 RAB17 P0000
PAFE 170056Z AUTO 00000KT 10SM FEW015 BKN033 OVC042 06/06 A2959 RMK AO2 RAB08E37 SLP033 P0000 T00610056
PAFE 162356Z AUTO 13004KT 10SM OVC044 07/06 A2959 RMK AO2 SLP031 60000 T00720056 10078 20061 50001
PAFE 162326Z AUTO 16004KT 10SM FEW008 BKN046 07/06 A2959 RMK AO2
PAFE 162308Z AUTO 14005KT 10SM SCT008 BKN017 OVC046 08/06 A2958 RMK AO2
PAFE 162256Z AUTO 15006KT 10SM BKN010 BKN015 OVC026 08/06 A2959 RMK AO2 RAE43 CIG 009V014 SLP032 P0000 T00780061
PAFE 162138Z AUTO 15005KT 10SM -RA BKN010 BKN045 07/06 A2958 RMK AO2 RAB23 P0000
PAFE 162056Z AUTO 13005KT 10SM FEW010 BKN044 07/06 A2958 RMK AO2 SLP030 T00720056 51003
PAFE 161856Z AUTO 15004KT 10SM SCT007 07/06 A2958 RMK AO2 SLP029 T00670056
PAFE 161846Z AUTO 12003KT 10SM SCT007 07/05 A2957 RMK AO2
PAFE 161756Z AUTO 11004KT 10SM CLR 06/05 A2958 RMK AO2 RAE1657 SLP029 60028 T00610050 10061 20050 56007
PAFE 161624Z AUTO 08004KT 10SM -RA OVC032 06/04 A2958 RMK AO2 P0000
PAFE 161556Z AUTO 07003KT 9SM -RA BKN022 OVC028 06/04 A2959 RMK AO2 SLP032 P0008 T00560044
PAFE 161456Z AUTO 10004KT 10SM -RA BKN023 OVC033 06/04 A2960 RMK AO2 SLP036 P0003 60019 T00560044 58016
PAFE 161356Z AUTO 11006KT 7SM RA SCT026 OVC033 06/04 A2962 RMK AO2 SLP042 P0005 T00560044
PAFE 161256Z AUTO 09005KT 8SM -RA BKN019 OVC026 06/05 A2964 RMK AO2 SLP050 P0011 T00560050
PAFE 161251Z AUTO 08004KT 8SM -RA SCT017 BKN024 OVC030 06/05 A2965 RMK AO2 P0010
PAFE 161156Z AUTO 11007KT 10SM RA OVC040 06/05 A2968 RMK AO2 RAB08 SLP062 P0003 60007 70015 T00610050 10072 20061 58023
PAFE 160956Z AUTO 12007KT 10SM -RA BKN049 07/06 A2973 RMK AO2 RAE19B44 SLP079 P0000 T00670056
PAFE 160856Z AUTO 10005KT 10SM -RA FEW045 SCT050 BKN065 06/05 A2975 RMK AO2 RAB04 SLP086 P0004 60004 T00610050 401000061 58002
PAFE 160756Z AUTO 13007KT 10SM BKN046 OVC060 07/05 A2975 RMK AO2 SLP087 T00670050
PAFE 160656Z AUTO 11006KT 10SM BKN055 06/05 A2976 RMK AO2 SLP090 T00610050
PAFE 160556Z AUTO 10007KT 10SM SCT120 07/05 A2975 RMK AO2 SLP087 T00670050 10094 20061 51010
PAFE 160456Z AUTO 15006KT 10SM FEW035 SCT050 BKN060 08/05 A2974 RMK AO2 SLP084 T00780050
PAFE 160356Z AUTO 13008KT 10SM OVC045 08/06 A2974 RMK AO2 SLP082 T00780056
PAFE 160256Z AUTO 10004KT 10SM BKN055 07/06 A2972 RMK AO2 SLP077 T00720056 51019
PAFE 160156Z AUTO 15008KT 10SM FEW029 08/06 A2971 RMK AO2 SLP072 T00830061
PAFE 160056Z AUTO 14006KT 10SM SCT049 BKN060 09/07 A2969 RMK AO2 SLP065 T00890072
PAFE 152308Z AUTO 13004KT 10SM FEW017 SCT039 SCT047 08/07 A2965 RMK AO2 RAE04 P0000
PAFE 152256Z AUTO 15005KT 10SM -RA BKN019 BKN026 OVC046 08/07 A2964 RMK AO2 SLP050 P0004 T00830072
PAFE 152140Z AUTO 12007KT 10SM -RA BKN027 OVC050 08/07 A2962 RMK AO2 P0000